Terminal Aerodrome Forecast
Issued by NWS New Orleans/Baton Rouge, LA

Home | Current Version | Previous Version | Text Only | Print | Product List | Glossary On
Versions: 1 2 3 4 5 6 7 8 9 10 11 12
091
FTUS44 KLIX 231732
TAFBTR
TAF
KBTR 231732Z 2318/2418 VRB04KT P6SM VCTS SCT025CB BKN040
      TEMPO 2319/2322 VRB20G30KT 2SM TSRA BKN020CB
     FM240000 VRB03KT P6SM FEW090 SCT200
     FM241500 VRB03KT P6SM VCSH SCT025 BKN090=

USA.gov is the U.S. government's official web portal to all federal, state and local government web resources and services.